sensor_id;sensor_type;location;lat;lon;timestamp;P1;durP1;ratioP1;P2;durP2;ratioP2
27213;SDS011;14723;55.814;37.460;2023-01-09T00:00:49;30.65;;;10.57;;
27213;SDS011;14723;55.814;37.460;2023-01-09T00:03:55;25.13;;;10.60;;
27213;SDS011;14723;55.814;37.460;2023-01-09T00:07:03;32.33;;;11.18;;
27213;SDS011;14723;55.814;37.460;2023-01-09T00:10:09;36.35;;;11.73;;
27213;SDS011;14723;55.814;37.460;2023-01-09T00:16:22;25.73;;;11.70;;
27213;SDS011;14723;55.814;37.460;2023-01-09T00:19:27;30.45;;;11.00;;
27213;SDS011;14723;55.814;37.460;2023-01-09T00:22:35;29.27;;;10.80;;
27213;SDS011;14723;55.814;37.460;2023-01-09T00:25:40;31.08;;;11.52;;
27213;SDS011;14723;55.814;37.460;2023-01-09T00:28:46;31.08;;;11.02;;
27213;SDS011;14723;55.814;37.460;2023-01-09T00:31:52;25.67;;;10.35;;
27213;SDS011;14723;55.814;37.460;2023-01-09T00:34:57;30.27;;;11.38;;
27213;SDS011;14723;55.814;37.460;2023-01-09T00:38:06;27.38;;;9.82;;
27213;SDS011;14723;55.814;37.460;2023-01-09T00:41:13;27.20;;;10.23;;
27213;SDS011;14723;55.814;37.460;2023-01-09T00:44:21;26.65;;;9.48;;
27213;SDS011;14723;55.814;37.460;2023-01-09T00:47:27;29.75;;;9.05;;
27213;SDS011;14723;55.814;37.460;2023-01-09T00:50:33;34.92;;;11.43;;
27213;SDS011;14723;55.814;37.460;2023-01-09T00:53:41;27.33;;;9.63;;
27213;SDS011;14723;55.814;37.460;2023-01-09T00:56:47;22.92;;;10.40;;
27213;SDS011;14723;55.814;37.460;2023-01-09T00:59:53;33.92;;;11.45;;
27213;SDS011;14723;55.814;37.460;2023-01-09T01:02:59;27.58;;;9.45;;
27213;SDS011;14723;55.814;37.460;2023-01-09T01:06:04;26.42;;;10.38;;
27213;SDS011;14723;55.814;37.460;2023-01-09T01:09:28;24.98;;;9.82;;
27213;SDS011;14723;55.814;37.460;2023-01-09T01:15:38;25.60;;;10.40;;
27213;SDS011;14723;55.814;37.460;2023-01-09T01:18:44;27.70;;;9.20;;
27213;SDS011;14723;55.814;37.460;2023-01-09T01:21:50;29.45;;;10.65;;
27213;SDS011;14723;55.814;37.460;2023-01-09T01:24:58;23.88;;;9.23;;
27213;SDS011;14723;55.814;37.460;2023-01-09T01:28:04;28.38;;;9.63;;
27213;SDS011;14723;55.814;37.460;2023-01-09T01:31:14;28.00;;;9.70;;
27213;SDS011;14723;55.814;37.460;2023-01-09T01:34:20;24.55;;;10.10;;
27213;SDS011;14723;55.814;37.460;2023-01-09T01:37:25;20.27;;;9.75;;
27213;SDS011;14723;55.814;37.460;2023-01-09T01:40:33;27.15;;;9.77;;
27213;SDS011;14723;55.814;37.460;2023-01-09T01:43:48;22.38;;;9.60;;
27213;SDS011;14723;55.814;37.460;2023-01-09T01:46:54;28.25;;;9.57;;
27213;SDS011;14723;55.814;37.460;2023-01-09T01:50:01;26.00;;;9.70;;
27213;SDS011;14723;55.814;37.460;2023-01-09T01:53:08;22.05;;;9.13;;
27213;SDS011;14723;55.814;37.460;2023-01-09T01:56:18;24.60;;;10.45;;
27213;SDS011;14723;55.814;37.460;2023-01-09T01:59:25;27.88;;;10.27;;
27213;SDS011;14723;55.814;37.460;2023-01-09T02:02:33;23.10;;;9.63;;
27213;SDS011;14723;55.814;37.460;2023-01-09T02:05:38;22.75;;;9.55;;
27213;SDS011;14723;55.814;37.460;2023-01-09T02:08:43;32.85;;;10.50;;
27213;SDS011;14723;55.814;37.460;2023-01-09T02:11:55;34.90;;;11.93;;
27213;SDS011;14723;55.814;37.460;2023-01-09T02:15:02;30.13;;;11.52;;
27213;SDS011;14723;55.814;37.460;2023-01-09T02:18:20;22.38;;;10.85;;
27213;SDS011;14723;55.814;37.460;2023-01-09T02:21:32;24.85;;;10.38;;
27213;SDS011;14723;55.814;37.460;2023-01-09T02:24:50;31.10;;;11.95;;
27213;SDS011;14723;55.814;37.460;2023-01-09T02:28:10;29.58;;;11.73;;
27213;SDS011;14723;55.814;37.460;2023-01-09T02:31:19;33.85;;;13.13;;
27213;SDS011;14723;55.814;37.460;2023-01-09T02:34:28;30.20;;;12.65;;
27213;SDS011;14723;55.814;37.460;2023-01-09T02:37:38;30.73;;;12.95;;
27213;SDS011;14723;55.814;37.460;2023-01-09T02:40:49;34.33;;;12.90;;
27213;SDS011;14723;55.814;37.460;2023-01-09T02:47:37;37.40;;;13.80;;
27213;SDS011;14723;55.814;37.460;2023-01-09T02:50:45;29.83;;;11.85;;
27213;SDS011;14723;55.814;37.460;2023-01-09T02:54:00;32.97;;;11.93;;
27213;SDS011;14723;55.814;37.460;2023-01-09T02:57:10;33.38;;;11.88;;
27213;SDS011;14723;55.814;37.460;2023-01-09T03:00:21;31.80;;;11.85;;
27213;SDS011;14723;55.814;37.460;2023-01-09T03:03:33;32.72;;;12.30;;
27213;SDS011;14723;55.814;37.460;2023-01-09T03:06:44;35.65;;;12.65;;
27213;SDS011;14723;55.814;37.460;2023-01-09T03:09:51;33.15;;;12.25;;
27213;SDS011;14723;55.814;37.460;2023-01-09T03:12:59;33.38;;;12.20;;
27213;SDS011;14723;55.814;37.460;2023-01-09T03:16:06;28.50;;;11.27;;
27213;SDS011;14723;55.814;37.460;2023-01-09T03:19:17;34.53;;;11.90;;
27213;SDS011;14723;55.814;37.460;2023-01-09T03:22:23;29.70;;;9.77;;
27213;SDS011;14723;55.814;37.460;2023-01-09T03:25:29;27.27;;;10.68;;
27213;SDS011;14723;55.814;37.460;2023-01-09T03:28:35;28.55;;;10.52;;
27213;SDS011;14723;55.814;37.460;2023-01-09T03:31:40;27.17;;;9.70;;
27213;SDS011;14723;55.814;37.460;2023-01-09T03:34:48;24.17;;;9.93;;
27213;SDS011;14723;55.814;37.460;2023-01-09T03:37:53;20.52;;;9.85;;
27213;SDS011;14723;55.814;37.460;2023-01-09T03:41:00;26.70;;;9.90;;
27213;SDS011;14723;55.814;37.460;2023-01-09T03:44:05;31.85;;;11.02;;
27213;SDS011;14723;55.814;37.460;2023-01-09T03:47:11;25.80;;;10.07;;
27213;SDS011;14723;55.814;37.460;2023-01-09T03:50:19;27.92;;;9.85;;
27213;SDS011;14723;55.814;37.460;2023-01-09T03:53:25;27.17;;;10.27;;
27213;SDS011;14723;55.814;37.460;2023-01-09T03:56:30;25.55;;;9.93;;
27213;SDS011;14723;55.814;37.460;2023-01-09T03:59:36;30.17;;;9.95;;
27213;SDS011;14723;55.814;37.460;2023-01-09T04:02:42;25.92;;;8.43;;
27213;SDS011;14723;55.814;37.460;2023-01-09T04:05:50;22.58;;;8.88;;
27213;SDS011;14723;55.814;37.460;2023-01-09T04:08:56;28.23;;;9.88;;
27213;SDS011;14723;55.814;37.460;2023-01-09T04:12:01;19.15;;;8.77;;
27213;SDS011;14723;55.814;37.460;2023-01-09T04:15:07;24.08;;;9.27;;
27213;SDS011;14723;55.814;37.460;2023-01-09T04:18:13;24.80;;;8.68;;
27213;SDS011;14723;55.814;37.460;2023-01-09T04:21:21;31.40;;;10.00;;
27213;SDS011;14723;55.814;37.460;2023-01-09T04:24:27;22.77;;;8.98;;
27213;SDS011;14723;55.814;37.460;2023-01-09T04:27:33;28.77;;;9.35;;
27213;SDS011;14723;55.814;37.460;2023-01-09T04:30:39;19.33;;;7.88;;
27213;SDS011;14723;55.814;37.460;2023-01-09T04:33:44;26.55;;;7.70;;
27213;SDS011;14723;55.814;37.460;2023-01-09T04:36:53;25.70;;;9.32;;
27213;SDS011;14723;55.814;37.460;2023-01-09T04:39:59;29.63;;;8.65;;
27213;SDS011;14723;55.814;37.460;2023-01-09T04:43:07;23.58;;;9.20;;
27213;SDS011;14723;55.814;37.460;2023-01-09T04:46:12;22.83;;;8.27;;
27213;SDS011;14723;55.814;37.460;2023-01-09T04:49:18;23.52;;;7.78;;
27213;SDS011;14723;55.814;37.460;2023-01-09T04:52:26;22.80;;;8.05;;
27213;SDS011;14723;55.814;37.460;2023-01-09T04:55:32;23.73;;;8.38;;
27213;SDS011;14723;55.814;37.460;2023-01-09T04:58:37;20.80;;;8.07;;
27213;SDS011;14723;55.814;37.460;2023-01-09T05:01:43;28.85;;;8.75;;
27213;SDS011;14723;55.814;37.460;2023-01-09T05:04:48;22.70;;;7.88;;
27213;SDS011;14723;55.814;37.460;2023-01-09T05:07:56;32.22;;;9.50;;
27213;SDS011;14723;55.814;37.460;2023-01-09T05:11:01;30.45;;;9.85;;
27213;SDS011;14723;55.814;37.460;2023-01-09T05:14:07;24.52;;;9.25;;
27213;SDS011;14723;55.814;37.460;2023-01-09T05:17:13;29.70;;;9.00;;
27213;SDS011;14723;55.814;37.460;2023-01-09T05:20:19;26.73;;;10.02;;
27213;SDS011;14723;55.814;37.460;2023-01-09T05:23:27;33.55;;;8.98;;
27213;SDS011;14723;55.814;37.460;2023-01-09T05:26:32;30.60;;;9.43;;
27213;SDS011;14723;55.814;37.460;2023-01-09T05:29:37;24.33;;;8.85;;
27213;SDS011;14723;55.814;37.460;2023-01-09T05:32:43;21.52;;;8.57;;
27213;SDS011;14723;55.814;37.460;2023-01-09T05:35:48;21.88;;;7.80;;
27213;SDS011;14723;55.814;37.460;2023-01-09T05:38:56;33.50;;;9.60;;
27213;SDS011;14723;55.814;37.460;2023-01-09T05:42:03;32.53;;;9.52;;
27213;SDS011;14723;55.814;37.460;2023-01-09T05:45:10;27.65;;;9.23;;
27213;SDS011;14723;55.814;37.460;2023-01-09T05:48:15;24.83;;;8.30;;
27213;SDS011;14723;55.814;37.460;2023-01-09T05:51:21;28.45;;;9.35;;
27213;SDS011;14723;55.814;37.460;2023-01-09T05:54:29;30.98;;;10.13;;
27213;SDS011;14723;55.814;37.460;2023-01-09T05:57:34;30.08;;;9.02;;
27213;SDS011;14723;55.814;37.460;2023-01-09T06:00:40;27.08;;;9.52;;
27213;SDS011;14723;55.814;37.460;2023-01-09T06:03:45;29.50;;;9.90;;
27213;SDS011;14723;55.814;37.460;2023-01-09T06:06:51;26.98;;;9.45;;
27213;SDS011;14723;55.814;37.460;2023-01-09T06:10:00;29.95;;;10.00;;
27213;SDS011;14723;55.814;37.460;2023-01-09T06:13:05;34.42;;;9.65;;
27213;SDS011;14723;55.814;37.460;2023-01-09T06:16:11;32.60;;;9.65;;
27213;SDS011;14723;55.814;37.460;2023-01-09T06:19:17;36.65;;;10.25;;
27213;SDS011;14723;55.814;37.460;2023-01-09T06:22:22;30.65;;;9.95;;
27213;SDS011;14723;55.814;37.460;2023-01-09T06:25:30;32.55;;;9.88;;
27213;SDS011;14723;55.814;37.460;2023-01-09T06:28:36;31.35;;;9.70;;
27213;SDS011;14723;55.814;37.460;2023-01-09T06:31:41;29.13;;;10.05;;
27213;SDS011;14723;55.814;37.460;2023-01-09T06:34:47;30.95;;;9.05;;
27213;SDS011;14723;55.814;37.460;2023-01-09T06:37:52;31.27;;;10.30;;
27213;SDS011;14723;55.814;37.460;2023-01-09T06:41:01;30.40;;;10.55;;
27213;SDS011;14723;55.814;37.460;2023-01-09T06:44:06;36.33;;;10.32;;
27213;SDS011;14723;55.814;37.460;2023-01-09T06:47:12;32.45;;;9.80;;
27213;SDS011;14723;55.814;37.460;2023-01-09T06:50:17;25.40;;;9.10;;
27213;SDS011;14723;55.814;37.460;2023-01-09T06:53:23;23.73;;;9.77;;
27213;SDS011;14723;55.814;37.460;2023-01-09T06:56:32;27.73;;;9.48;;
27213;SDS011;14723;55.814;37.460;2023-01-09T06:59:37;26.90;;;9.10;;
27213;SDS011;14723;55.814;37.460;2023-01-09T07:02:42;27.65;;;8.90;;
27213;SDS011;14723;55.814;37.460;2023-01-09T07:05:48;32.55;;;10.38;;
27213;SDS011;14723;55.814;37.460;2023-01-09T07:08:53;28.83;;;9.38;;
27213;SDS011;14723;55.814;37.460;2023-01-09T07:12:01;24.40;;;8.70;;
27213;SDS011;14723;55.814;37.460;2023-01-09T07:18:12;24.25;;;8.65;;
27213;SDS011;14723;55.814;37.460;2023-01-09T07:21:17;23.13;;;7.90;;
27213;SDS011;14723;55.814;37.460;2023-01-09T07:24:23;18.17;;;7.35;;
27213;SDS011;14723;55.814;37.460;2023-01-09T07:27:31;25.23;;;7.78;;
27213;SDS011;14723;55.814;37.460;2023-01-09T07:30:36;24.05;;;8.20;;
27213;SDS011;14723;55.814;37.460;2023-01-09T07:33:42;16.02;;;7.15;;
27213;SDS011;14723;55.814;37.460;2023-01-09T07:36:47;23.80;;;7.70;;
27213;SDS011;14723;55.814;37.460;2023-01-09T07:39:53;19.92;;;6.60;;
27213;SDS011;14723;55.814;37.460;2023-01-09T07:43:01;15.48;;;6.03;;
27213;SDS011;14723;55.814;37.460;2023-01-09T07:46:06;21.27;;;7.43;;
27213;SDS011;14723;55.814;37.460;2023-01-09T07:49:11;19.30;;;6.25;;
27213;SDS011;14723;55.814;37.460;2023-01-09T07:52:17;18.95;;;7.05;;
27213;SDS011;14723;55.814;37.460;2023-01-09T07:55:22;24.23;;;7.45;;
27213;SDS011;14723;55.814;37.460;2023-01-09T07:58:30;25.85;;;7.93;;
27213;SDS011;14723;55.814;37.460;2023-01-09T08:01:35;21.92;;;7.65;;
27213;SDS011;14723;55.814;37.460;2023-01-09T08:04:41;26.88;;;8.82;;
27213;SDS011;14723;55.814;37.460;2023-01-09T08:07:46;22.58;;;7.30;;
27213;SDS011;14723;55.814;37.460;2023-01-09T08:10:52;18.25;;;7.38;;
27213;SDS011;14723;55.814;37.460;2023-01-09T08:14:00;21.95;;;7.07;;
27213;SDS011;14723;55.814;37.460;2023-01-09T08:17:06;17.75;;;7.03;;
27213;SDS011;14723;55.814;37.460;2023-01-09T08:20:13;18.98;;;6.95;;
27213;SDS011;14723;55.814;37.460;2023-01-09T08:23:19;21.17;;;7.45;;
27213;SDS011;14723;55.814;37.460;2023-01-09T08:26:24;18.10;;;6.57;;
27213;SDS011;14723;55.814;37.460;2023-01-09T08:29:32;20.40;;;7.57;;
27213;SDS011;14723;55.814;37.460;2023-01-09T08:32:38;18.60;;;6.97;;
27213;SDS011;14723;55.814;37.460;2023-01-09T08:35:43;20.08;;;7.60;;
27213;SDS011;14723;55.814;37.460;2023-01-09T08:38:49;19.88;;;7.30;;
27213;SDS011;14723;55.814;37.460;2023-01-09T08:41:54;17.05;;;7.65;;
27213;SDS011;14723;55.814;37.460;2023-01-09T08:45:14;19.65;;;6.45;;
27213;SDS011;14723;55.814;37.460;2023-01-09T08:48:32;23.30;;;8.15;;
27213;SDS011;14723;55.814;37.460;2023-01-09T08:51:38;21.40;;;7.50;;
27213;SDS011;14723;55.814;37.460;2023-01-09T08:54:43;16.33;;;6.95;;
27213;SDS011;14723;55.814;37.460;2023-01-09T08:57:49;16.73;;;6.90;;
27213;SDS011;14723;55.814;37.460;2023-01-09T09:00:57;22.95;;;7.88;;
27213;SDS011;14723;55.814;37.460;2023-01-09T09:04:03;20.77;;;8.50;;
27213;SDS011;14723;55.814;37.460;2023-01-09T09:07:08;17.05;;;7.70;;
27213;SDS011;14723;55.814;37.460;2023-01-09T09:10:14;23.25;;;7.82;;
27213;SDS011;14723;55.814;37.460;2023-01-09T09:13:19;24.25;;;7.25;;
27213;SDS011;14723;55.814;37.460;2023-01-09T09:16:28;24.15;;;7.97;;
27213;SDS011;14723;55.814;37.460;2023-01-09T09:22:40;24.05;;;7.75;;
27213;SDS011;14723;55.814;37.460;2023-01-09T09:25:45;22.23;;;8.25;;
27213;SDS011;14723;55.814;37.460;2023-01-09T09:28:51;18.13;;;7.43;;
27213;SDS011;14723;55.814;37.460;2023-01-09T09:31:59;18.75;;;7.55;;
27213;SDS011;14723;55.814;37.460;2023-01-09T09:35:05;19.42;;;8.27;;
27213;SDS011;14723;55.814;37.460;2023-01-09T09:38:10;19.85;;;7.80;;
27213;SDS011;14723;55.814;37.460;2023-01-09T09:41:19;20.95;;;7.97;;
27213;SDS011;14723;55.814;37.460;2023-01-09T09:44:44;20.38;;;8.30;;
27213;SDS011;14723;55.814;37.460;2023-01-09T09:48:00;23.85;;;7.80;;
27213;SDS011;14723;55.814;37.460;2023-01-09T09:51:14;19.73;;;7.13;;
27213;SDS011;14723;55.814;37.460;2023-01-09T09:54:22;22.23;;;7.85;;
27213;SDS011;14723;55.814;37.460;2023-01-09T09:57:31;26.50;;;9.18;;
27213;SDS011;14723;55.814;37.460;2023-01-09T10:00:38;21.65;;;8.48;;
27213;SDS011;14723;55.814;37.460;2023-01-09T10:03:47;23.40;;;9.38;;
27213;SDS011;14723;55.814;37.460;2023-01-09T10:06:54;27.60;;;9.85;;
27213;SDS011;14723;55.814;37.460;2023-01-09T10:10:01;24.92;;;8.98;;
27213;SDS011;14723;55.814;37.460;2023-01-09T10:13:07;25.70;;;9.07;;
27213;SDS011;14723;55.814;37.460;2023-01-09T10:16:27;29.55;;;9.55;;
27213;SDS011;14723;55.814;37.460;2023-01-09T10:19:44;28.05;;;9.18;;
27213;SDS011;14723;55.814;37.460;2023-01-09T10:22:55;28.98;;;9.82;;
27213;SDS011;14723;55.814;37.460;2023-01-09T10:26:05;29.02;;;9.30;;
27213;SDS011;14723;55.814;37.460;2023-01-09T10:32:46;28.38;;;9.25;;
27213;SDS011;14723;55.814;37.460;2023-01-09T10:36:14;21.02;;;8.02;;
27213;SDS011;14723;55.814;37.460;2023-01-09T10:39:23;20.13;;;7.18;;
27213;SDS011;14723;55.814;37.460;2023-01-09T10:42:31;24.17;;;8.70;;
27213;SDS011;14723;55.814;37.460;2023-01-09T10:45:39;22.98;;;8.32;;
27213;SDS011;14723;55.814;37.460;2023-01-09T10:48:48;21.45;;;7.63;;
27213;SDS011;14723;55.814;37.460;2023-01-09T10:52:00;20.50;;;7.68;;
27213;SDS011;14723;55.814;37.460;2023-01-09T10:55:13;27.75;;;8.75;;
27213;SDS011;14723;55.814;37.460;2023-01-09T10:58:21;19.10;;;7.38;;
27213;SDS011;14723;55.814;37.460;2023-01-09T11:01:27;18.20;;;6.07;;
27213;SDS011;14723;55.814;37.460;2023-01-09T11:04:35;24.98;;;8.27;;
27213;SDS011;14723;55.814;37.460;2023-01-09T11:07:44;31.52;;;7.65;;
27213;SDS011;14723;55.814;37.460;2023-01-09T11:10:51;27.08;;;7.95;;
27213;SDS011;14723;55.814;37.460;2023-01-09T11:14:02;28.70;;;7.68;;
27213;SDS011;14723;55.814;37.460;2023-01-09T11:17:11;23.55;;;7.85;;
27213;SDS011;14723;55.814;37.460;2023-01-09T11:20:23;27.80;;;8.18;;
27213;SDS011;14723;55.814;37.460;2023-01-09T11:23:32;28.17;;;8.32;;
27213;SDS011;14723;55.814;37.460;2023-01-09T11:26:37;24.35;;;8.38;;
27213;SDS011;14723;55.814;37.460;2023-01-09T11:29:43;22.35;;;8.57;;
27213;SDS011;14723;55.814;37.460;2023-01-09T11:32:48;29.00;;;9.38;;
27213;SDS011;14723;55.814;37.460;2023-01-09T11:35:55;25.27;;;9.07;;
27213;SDS011;14723;55.814;37.460;2023-01-09T11:39:04;27.35;;;8.43;;
27213;SDS011;14723;55.814;37.460;2023-01-09T11:42:17;23.20;;;7.95;;
27213;SDS011;14723;55.814;37.460;2023-01-09T11:45:46;32.50;;;9.45;;
27213;SDS011;14723;55.814;37.460;2023-01-09T11:49:02;34.05;;;9.07;;
27213;SDS011;14723;55.814;37.460;2023-01-09T11:52:14;28.05;;;9.02;;
27213;SDS011;14723;55.814;37.460;2023-01-09T11:55:23;29.23;;;8.30;;
27213;SDS011;14723;55.814;37.460;2023-01-09T11:58:42;25.35;;;8.77;;
27213;SDS011;14723;55.814;37.460;2023-01-09T12:05:10;24.05;;;7.38;;
27213;SDS011;14723;55.814;37.460;2023-01-09T12:08:24;24.23;;;8.43;;
27213;SDS011;14723;55.814;37.460;2023-01-09T12:11:36;21.08;;;7.60;;
27213;SDS011;14723;55.814;37.460;2023-01-09T12:14:45;21.17;;;7.53;;
27213;SDS011;14723;55.814;37.460;2023-01-09T12:18:06;29.67;;;8.32;;
27213;SDS011;14723;55.814;37.460;2023-01-09T12:21:21;27.75;;;8.05;;
27213;SDS011;14723;55.814;37.460;2023-01-09T12:24:39;21.90;;;7.72;;
27213;SDS011;14723;55.814;37.460;2023-01-09T12:27:55;21.33;;;8.45;;
27213;SDS011;14723;55.814;37.460;2023-01-09T12:31:07;24.73;;;8.25;;
27213;SDS011;14723;55.814;37.460;2023-01-09T12:34:22;23.35;;;7.60;;
27213;SDS011;14723;55.814;37.460;2023-01-09T12:41:02;22.70;;;8.23;;
27213;SDS011;14723;55.814;37.460;2023-01-09T12:44:22;32.10;;;8.27;;
27213;SDS011;14723;55.814;37.460;2023-01-09T12:47:40;21.30;;;7.82;;
27213;SDS011;14723;55.814;37.460;2023-01-09T12:50:53;19.02;;;7.35;;
27213;SDS011;14723;55.814;37.460;2023-01-09T12:54:04;18.45;;;7.45;;
27213;SDS011;14723;55.814;37.460;2023-01-09T12:57:14;19.77;;;7.28;;
27213;SDS011;14723;55.814;37.460;2023-01-09T13:00:26;26.02;;;7.07;;
27213;SDS011;14723;55.814;37.460;2023-01-09T13:03:33;17.38;;;6.43;;
27213;SDS011;14723;55.814;37.460;2023-01-09T13:06:42;18.25;;;6.80;;
27213;SDS011;14723;55.814;37.460;2023-01-09T13:09:53;18.48;;;7.38;;
27213;SDS011;14723;55.814;37.460;2023-01-09T13:13:02;22.27;;;7.93;;
27213;SDS011;14723;55.814;37.460;2023-01-09T13:16:13;22.15;;;7.20;;
27213;SDS011;14723;55.814;37.460;2023-01-09T13:19:21;19.88;;;7.30;;
27213;SDS011;14723;55.814;37.460;2023-01-09T13:22:28;23.73;;;7.25;;
27213;SDS011;14723;55.814;37.460;2023-01-09T13:25:40;23.40;;;7.75;;
27213;SDS011;14723;55.814;37.460;2023-01-09T13:28:48;19.05;;;6.53;;
27213;SDS011;14723;55.814;37.460;2023-01-09T13:35:13;17.58;;;6.93;;
27213;SDS011;14723;55.814;37.460;2023-01-09T13:38:20;20.75;;;6.63;;
27213;SDS011;14723;55.814;37.460;2023-01-09T13:41:26;17.53;;;7.03;;
27213;SDS011;14723;55.814;37.460;2023-01-09T13:44:47;16.48;;;6.22;;
27213;SDS011;14723;55.814;37.460;2023-01-09T13:58:23;19.02;;;6.75;;
27213;SDS011;14723;55.814;37.460;2023-01-09T14:01:38;17.83;;;6.80;;
27213;SDS011;14723;55.814;37.460;2023-01-09T14:04:44;16.15;;;6.80;;
27213;SDS011;14723;55.814;37.460;2023-01-09T14:07:50;18.60;;;7.30;;
27213;SDS011;14723;55.814;37.460;2023-01-09T14:10:57;17.67;;;6.53;;
27213;SDS011;14723;55.814;37.460;2023-01-09T14:14:06;19.95;;;6.22;;
27213;SDS011;14723;55.814;37.460;2023-01-09T14:17:22;33.22;;;7.22;;
27213;SDS011;14723;55.814;37.460;2023-01-09T14:20:31;21.02;;;6.97;;
27213;SDS011;14723;55.814;37.460;2023-01-09T14:23:46;18.13;;;6.10;;
27213;SDS011;14723;55.814;37.460;2023-01-09T14:26:55;21.10;;;7.07;;
27213;SDS011;14723;55.814;37.460;2023-01-09T14:33:28;23.80;;;6.88;;
27213;SDS011;14723;55.814;37.460;2023-01-09T14:36:34;21.48;;;6.25;;
27213;SDS011;14723;55.814;37.460;2023-01-09T14:39:40;18.85;;;6.38;;
27213;SDS011;14723;55.814;37.460;2023-01-09T14:42:50;19.83;;;6.93;;
27213;SDS011;14723;55.814;37.460;2023-01-09T14:45:57;21.52;;;7.25;;
27213;SDS011;14723;55.814;37.460;2023-01-09T14:49:11;24.77;;;7.60;;
27213;SDS011;14723;55.814;37.460;2023-01-09T14:52:20;22.38;;;7.07;;
27213;SDS011;14723;55.814;37.460;2023-01-09T14:55:26;17.73;;;6.82;;
27213;SDS011;14723;55.814;37.460;2023-01-09T14:58:34;26.05;;;6.50;;
27213;SDS011;14723;55.814;37.460;2023-01-09T15:01:41;22.38;;;8.00;;
27213;SDS011;14723;55.814;37.460;2023-01-09T15:07:56;19.83;;;6.63;;
27213;SDS011;14723;55.814;37.460;2023-01-09T15:11:02;24.30;;;8.15;;
27213;SDS011;14723;55.814;37.460;2023-01-09T15:14:10;19.38;;;7.88;;
27213;SDS011;14723;55.814;37.460;2023-01-09T15:17:23;25.38;;;7.68;;
27213;SDS011;14723;55.814;37.460;2023-01-09T15:23:36;26.80;;;8.00;;
27213;SDS011;14723;55.814;37.460;2023-01-09T15:26:42;21.92;;;7.70;;
27213;SDS011;14723;55.814;37.460;2023-01-09T15:29:55;27.20;;;8.10;;
27213;SDS011;14723;55.814;37.460;2023-01-09T15:33:00;22.73;;;9.50;;
27213;SDS011;14723;55.814;37.460;2023-01-09T15:36:10;27.65;;;8.57;;
27213;SDS011;14723;55.814;37.460;2023-01-09T15:42:24;25.15;;;8.65;;
27213;SDS011;14723;55.814;37.460;2023-01-09T15:45:43;24.15;;;8.80;;
27213;SDS011;14723;55.814;37.460;2023-01-09T15:48:51;22.75;;;7.43;;
27213;SDS011;14723;55.814;37.460;2023-01-09T15:51:57;29.13;;;8.20;;
27213;SDS011;14723;55.814;37.460;2023-01-09T15:55:04;21.10;;;7.95;;
27213;SDS011;14723;55.814;37.460;2023-01-09T15:58:26;27.00;;;8.15;;
27213;SDS011;14723;55.814;37.460;2023-01-09T16:01:32;26.00;;;8.63;;
27213;SDS011;14723;55.814;37.460;2023-01-09T16:04:39;23.95;;;8.48;;
27213;SDS011;14723;55.814;37.460;2023-01-09T16:07:45;22.65;;;7.68;;
27213;SDS011;14723;55.814;37.460;2023-01-09T16:10:52;22.02;;;7.97;;
27213;SDS011;14723;55.814;37.460;2023-01-09T16:14:01;27.60;;;9.27;;
27213;SDS011;14723;55.814;37.460;2023-01-09T16:17:12;26.02;;;8.50;;
27213;SDS011;14723;55.814;37.460;2023-01-09T16:20:22;22.65;;;8.65;;
27213;SDS011;14723;55.814;37.460;2023-01-09T16:23:29;26.27;;;7.93;;
27213;SDS011;14723;55.814;37.460;2023-01-09T16:26:35;22.95;;;8.27;;
27213;SDS011;14723;55.814;37.460;2023-01-09T16:29:46;33.13;;;8.90;;
27213;SDS011;14723;55.814;37.460;2023-01-09T16:32:52;22.73;;;7.70;;
27213;SDS011;14723;55.814;37.460;2023-01-09T16:35:58;22.52;;;8.77;;
27213;SDS011;14723;55.814;37.460;2023-01-09T16:39:04;24.65;;;8.13;;
27213;SDS011;14723;55.814;37.460;2023-01-09T16:42:12;22.88;;;7.75;;
27213;SDS011;14723;55.814;37.460;2023-01-09T16:45:35;20.58;;;7.43;;
27213;SDS011;14723;55.814;37.460;2023-01-09T16:48:41;18.65;;;6.85;;
27213;SDS011;14723;55.814;37.460;2023-01-09T16:51:47;23.55;;;6.72;;
27213;SDS011;14723;55.814;37.460;2023-01-09T16:54:53;18.58;;;7.07;;
27213;SDS011;14723;55.814;37.460;2023-01-09T16:57:59;22.75;;;6.90;;
27213;SDS011;14723;55.814;37.460;2023-01-09T17:01:07;17.80;;;6.25;;
27213;SDS011;14723;55.814;37.460;2023-01-09T17:04:15;19.20;;;6.70;;
27213;SDS011;14723;55.814;37.460;2023-01-09T17:07:22;15.65;;;6.43;;
27213;SDS011;14723;55.814;37.460;2023-01-09T17:10:28;20.40;;;6.60;;
27213;SDS011;14723;55.814;37.460;2023-01-09T17:13:34;20.20;;;6.15;;
27213;SDS011;14723;55.814;37.460;2023-01-09T17:16:43;15.27;;;6.20;;
27213;SDS011;14723;55.814;37.460;2023-01-09T17:19:49;21.42;;;6.30;;
27213;SDS011;14723;55.814;37.460;2023-01-09T17:22:55;21.23;;;6.30;;
27213;SDS011;14723;55.814;37.460;2023-01-09T17:26:00;17.80;;;6.15;;
27213;SDS011;14723;55.814;37.460;2023-01-09T17:29:19;21.40;;;6.28;;
27213;SDS011;14723;55.814;37.460;2023-01-09T17:32:27;17.20;;;7.00;;
27213;SDS011;14723;55.814;37.460;2023-01-09T17:35:33;17.88;;;6.60;;
27213;SDS011;14723;55.814;37.460;2023-01-09T17:38:39;13.88;;;5.18;;
27213;SDS011;14723;55.814;37.460;2023-01-09T17:41:45;19.95;;;5.95;;
27213;SDS011;14723;55.814;37.460;2023-01-09T17:44:51;15.52;;;5.78;;
27213;SDS011;14723;55.814;37.460;2023-01-09T17:48:00;17.92;;;5.57;;
27213;SDS011;14723;55.814;37.460;2023-01-09T17:51:05;21.23;;;6.28;;
27213;SDS011;14723;55.814;37.460;2023-01-09T17:54:10;19.73;;;6.38;;
27213;SDS011;14723;55.814;37.460;2023-01-09T17:57:21;13.57;;;5.70;;
27213;SDS011;14723;55.814;37.460;2023-01-09T18:00:27;16.05;;;6.20;;
27213;SDS011;14723;55.814;37.460;2023-01-09T18:03:36;16.83;;;5.85;;
27213;SDS011;14723;55.814;37.460;2023-01-09T18:06:42;20.98;;;5.90;;
27213;SDS011;14723;55.814;37.460;2023-01-09T18:09:49;15.23;;;4.82;;
27213;SDS011;14723;55.814;37.460;2023-01-09T18:12:54;19.50;;;6.45;;
27213;SDS011;14723;55.814;37.460;2023-01-09T18:16:00;15.45;;;5.68;;
27213;SDS011;14723;55.814;37.460;2023-01-09T18:19:08;13.05;;;4.93;;
27213;SDS011;14723;55.814;37.460;2023-01-09T18:22:14;17.40;;;5.88;;
27213;SDS011;14723;55.814;37.460;2023-01-09T18:25:20;15.32;;;5.00;;
27213;SDS011;14723;55.814;37.460;2023-01-09T18:28:25;14.50;;;5.43;;
27213;SDS011;14723;55.814;37.460;2023-01-09T18:31:32;16.58;;;5.30;;
27213;SDS011;14723;55.814;37.460;2023-01-09T18:34:40;14.60;;;5.20;;
27213;SDS011;14723;55.814;37.460;2023-01-09T18:37:45;14.30;;;5.55;;
27213;SDS011;14723;55.814;37.460;2023-01-09T18:40:56;17.02;;;5.55;;
27213;SDS011;14723;55.814;37.460;2023-01-09T18:44:02;13.82;;;5.28;;
27213;SDS011;14723;55.814;37.460;2023-01-09T18:47:07;17.45;;;5.47;;
27213;SDS011;14723;55.814;37.460;2023-01-09T18:50:15;14.00;;;5.22;;
27213;SDS011;14723;55.814;37.460;2023-01-09T18:53:21;13.55;;;4.90;;
27213;SDS011;14723;55.814;37.460;2023-01-09T18:56:26;14.57;;;5.05;;
27213;SDS011;14723;55.814;37.460;2023-01-09T18:59:32;18.40;;;5.47;;
27213;SDS011;14723;55.814;37.460;2023-01-09T19:02:38;12.75;;;4.70;;
27213;SDS011;14723;55.814;37.460;2023-01-09T19:05:46;13.25;;;5.28;;
27213;SDS011;14723;55.814;37.460;2023-01-09T19:08:51;15.60;;;4.85;;